Time;durP1;ratioP1;P1;durP2;ratioP2;P2;SDS_P1;SDS_P2;PMS_P1;PMS_P2;Temp;Humidity;BMP_temperature;BMP_pressure;BME280_temperature;BME280_humidity;BME280_pressure;Samples;Min_cycle;Max_cycle;Signal;HPM_P1;HPM_P2
2022/08/28 00:01:35;;;;;;;;;9.33;8.33;;;;;20.48;48.41;101069.09;5096415;27;45708;-59
2022/08/28 00:04:01;;;;;;;;;9.67;9.33;;;;;20.41;48.32;101063.34;5095684;27;45621;-60
2022/08/28 00:06:26;;;;;;;;;11.67;9.33;;;;;20.41;48.44;101065.19;5096466;27;46336;-59
2022/08/28 00:08:52;;;;;;;;;9.67;8.33;;;;;20.30;48.65;101058.88;5097585;27;45391;-60
2022/08/28 00:11:19;;;;;;;;;10.00;9.00;;;;;20.27;49.06;101061.88;5098373;27;45420;-62
2022/08/28 00:13:44;;;;;;;;;6.00;6.00;;;;;20.27;49.00;101058.31;5097159;27;45496;-62
2022/08/28 00:16:10;;;;;;;;;9.00;8.00;;;;;20.22;48.91;101055.19;5096465;27;46333;-59
2022/08/28 00:18:35;;;;;;;;;8.33;8.33;;;;;20.20;49.13;101063.44;5095601;27;47209;-60
2022/08/28 00:21:01;;;;;;;;;7.33;7.33;;;;;20.17;49.57;101065.53;5097610;27;45318;-60
2022/08/28 00:23:28;;;;;;;;;6.67;6.67;;;;;20.12;49.96;101062.38;5099538;27;45214;-59
2022/08/28 00:25:54;;;;;;;;;7.67;7.67;;;;;20.09;49.76;101066.22;5113007;27;46162;-60
2022/08/28 00:28:19;;;;;;;;;8.00;8.00;;;;;20.08;49.77;101063.66;5086758;27;45315;-58
2022/08/28 00:30:48;;;;;;;;;8.67;8.00;;;;;19.95;49.96;101051.25;5079666;27;45476;-61
2022/08/28 00:33:18;;;;;;;;;7.00;7.00;;;;;19.97;49.97;101051.97;5089207;27;45500;-60
2022/08/28 00:35:45;;;;;;;;;6.00;6.00;;;;;20.01;50.16;101060.63;5101208;27;46208;-60
2022/08/28 00:38:12;;;;;;;;;7.00;7.00;;;;;19.99;50.03;101068.03;5095147;27;45444;-59
2022/08/28 00:40:39;;;;;;;;;6.67;6.67;;;;;19.92;50.20;101050.63;5100186;27;45380;-60
2022/08/28 00:43:06;;;;;;;;;7.00;6.00;;;;;19.95;50.43;101061.19;5081901;27;45192;-59
2022/08/28 00:45:32;;;;;;;;;8.67;8.67;;;;;19.91;50.49;101071.38;5099242;27;46301;-61
2022/08/28 00:47:58;;;;;;;;;5.00;5.00;;;;;19.86;50.75;101059.28;5098900;27;45325;-59
2022/08/28 00:50:27;;;;;;;;;10.00;7.00;;;;;19.89;50.49;101072.50;5094852;27;45494;-59
2022/08/28 00:52:58;;;;;;;;;9.00;7.00;;;;;19.86;51.29;101072.78;5097635;27;45589;-59
2022/08/28 00:55:26;;;;;;;;;5.00;5.00;;;;;19.84;50.91;101064.81;5092780;27;46060;-59
2022/08/28 00:57:55;;;;;;;;;8.00;4.00;;;;;19.83;50.93;101068.50;5086373;27;45456;-64
2022/08/28 01:00:31;;;;;;;;;9.33;7.67;;;;;19.80;51.37;101074.19;5096895;27;45435;-60
2022/08/28 01:02:57;;;;;;;;;5.00;5.00;;;;;19.77;51.29;101070.88;5082775;27;45218;-60
2022/08/28 01:05:24;;;;;;;;;7.00;6.00;;;;;19.71;51.70;101072.28;5092510;27;45314;-59
2022/08/28 01:07:50;;;;;;;;;7.00;6.00;;;;;19.69;51.64;101066.16;5085456;27;45263;-60
2022/08/28 01:10:20;;;;;;;;;8.33;5.00;;;;;19.66;51.55;101066.41;5081151;27;46032;-60
2022/08/28 01:12:48;;;;;;;;;5.33;5.00;;;;;19.69;51.57;101079.66;5097483;27;45620;-59
2022/08/28 01:15:19;;;;;;;;;5.67;5.00;;;;;19.65;51.95;101076.34;5094799;27;45369;-59
2022/08/28 01:17:52;;;;;;;;;6.00;6.00;;;;;19.60;52.05;101072.34;5086709;27;45471;-58
2022/08/28 01:20:23;;;;;;;;;13.00;9.00;;;;;19.59;52.46;101076.03;5095510;27;45444;-59
2022/08/28 01:23:01;;;;;;;;;7.67;7.67;;;;;19.58;52.28;101085.13;5094615;27;45439;-58
2022/08/28 01:25:31;;;;;;;;;5.33;5.33;;;;;19.52;52.61;101072.97;5096583;27;45420;-59
2022/08/28 01:27:57;;;;;;;;;6.00;6.00;;;;;19.50;52.56;101072.25;5097391;27;45479;-60
2022/08/28 01:30:23;;;;;;;;;7.00;6.00;;;;;19.47;53.23;101072.50;5098142;27;45273;-59
2022/08/28 01:32:52;;;;;;;;;4.00;4.00;;;;;19.44;53.21;101067.38;5101237;27;45512;-59
2022/08/28 01:35:39;;;;;;;;;6.00;5.00;;;;;19.36;53.08;101059.94;5103304;27;45330;-60
2022/08/28 01:38:05;;;;;;;;;4.00;4.00;;;;;19.32;53.44;101058.50;5098387;27;45442;-59
2022/08/28 01:40:45;;;;;;;;;4.00;4.00;;;;;19.32;53.28;101058.50;5098929;27;45251;-58
2022/08/28 01:43:18;;;;;;;;;5.00;5.00;;;;;19.32;53.49;101050.41;5098093;27;46080;-61
2022/08/28 01:45:51;;;;;;;;;5.67;5.67;;;;;19.22;53.60;101046.78;5098301;27;45282;-59
2022/08/28 01:48:16;;;;;;;;;9.33;6.33;;;;;19.28;53.58;101062.47;5098532;27;45290;-58
2022/08/28 01:50:42;;;;;;;;;5.67;5.67;;;;;19.26;53.77;101053.63;5092632;27;45503;-59
2022/08/28 01:53:11;;;;;;;;;6.33;6.33;;;;;19.25;53.89;101053.75;5098526;27;45662;-59
2022/08/28 01:55:37;;;;;;;;;7.67;7.67;;;;;19.24;53.82;101050.19;5097128;27;45434;-58
2022/08/28 01:58:05;;;;;;;;;3.00;3.00;;;;;19.26;53.54;101045.53;5097986;27;45336;-58
2022/08/28 02:00:30;;;;;;;;;7.33;6.67;;;;;19.26;53.78;101042.81;5096096;27;45523;-64
2022/08/28 02:02:58;;;;;;;;;5.67;5.67;;;;;19.19;54.00;101051.59;5098356;27;45273;-59
2022/08/28 02:05:26;;;;;;;;;7.33;7.33;;;;;19.07;54.35;101048.94;5083890;27;46644;-59
2022/08/28 02:07:51;;;;;;;;;7.00;5.67;;;;;19.05;54.79;101053.63;5084543;27;45364;-59
2022/08/28 02:10:17;;;;;;;;;6.33;6.33;;;;;18.96;55.06;101053.53;5090244;27;45561;-59
2022/08/28 02:12:43;;;;;;;;;6.67;6.67;;;;;18.97;55.20;101063.31;5076454;27;45553;-59
2022/08/28 02:15:09;;;;;;;;;6.67;6.67;;;;;18.95;55.51;101057.19;5084404;27;46351;-59
2022/08/28 02:17:34;;;;;;;;;6.00;6.00;;;;;18.95;55.29;101060.75;5095786;27;45526;-59
2022/08/28 02:20:00;;;;;;;;;7.67;7.00;;;;;18.95;54.94;101054.50;5093073;27;45405;-58
2022/08/28 02:22:26;;;;;;;;;8.00;6.00;;;;;18.92;55.21;101057.47;5077401;27;45634;-59
2022/08/28 02:24:51;;;;;;;;;5.33;5.33;;;;;18.90;54.93;101060.28;5088697;27;45392;-59
2022/08/28 02:27:16;;;;;;;;;5.00;5.00;;;;;18.90;55.49;101056.75;5096788;27;45334;-58
2022/08/28 02:29:42;;;;;;;;;7.67;7.67;;;;;18.86;55.36;101067.75;5093952;27;45431;-60
2022/08/28 02:32:08;;;;;;;;;8.33;7.33;;;;;18.79;55.68;101063.88;5097124;27;45666;-59
2022/08/28 02:34:34;;;;;;;;;7.67;7.67;;;;;18.78;55.90;101061.31;5097872;27;45695;-59
2022/08/28 02:37:00;;;;;;;;;9.00;7.00;;;;;18.76;56.04;101069.53;5098850;27;45492;-58
2022/08/28 02:39:25;;;;;;;;;8.00;7.00;;;;;18.69;56.34;101064.75;5080666;27;45333;-59
2022/08/28 02:41:51;;;;;;;;;11.00;5.67;;;;;18.67;56.26;101064.88;5092818;27;45685;-58
2022/08/28 02:44:16;;;;;;;;;5.00;5.00;;;;;18.64;56.78;101062.44;5095253;27;46086;-61
2022/08/28 02:46:42;;;;;;;;;11.33;5.00;;;;;18.61;56.58;101062.66;5077584;27;45527;-60
2022/08/28 02:49:07;;;;;;;;;5.00;5.00;;;;;18.55;56.89;101064.03;5091979;27;45561;-59
2022/08/28 02:51:33;;;;;;;;;8.00;6.00;;;;;18.57;56.42;101061.19;5096573;27;45678;-60
2022/08/28 02:54:00;;;;;;;;;5.33;5.00;;;;;18.55;57.12;101061.31;5098014;27;46961;-60
2022/08/28 02:56:25;;;;;;;;;6.33;6.33;;;;;18.46;57.57;101062.06;5080588;27;45229;-60
2022/08/28 02:58:50;;;;;;;;;6.67;6.67;;;;;18.40;57.23;101048.28;5087985;27;46005;-59
2022/08/28 03:01:16;;;;;;;;;8.00;6.67;;;;;18.40;57.29;101059.91;5096570;27;45757;-60
2022/08/28 03:03:41;;;;;;;;;7.67;6.33;;;;;18.41;56.83;101052.66;5095667;27;46119;-60
2022/08/28 03:06:09;;;;;;;;;7.00;6.00;;;;;18.44;57.17;101050.56;5098960;27;45300;-59
2022/08/28 03:08:34;;;;;;;;;6.67;6.67;;;;;18.45;57.37;101054.13;5097754;27;45367;-60
2022/08/28 03:10:59;;;;;;;;;7.00;6.00;;;;;18.41;57.54;101060.75;5093757;27;46861;-59
2022/08/28 03:13:26;;;;;;;;;7.00;7.00;;;;;18.33;58.31;101050.59;5095370;27;45489;-60
2022/08/28 03:15:51;;;;;;;;;7.67;7.67;;;;;18.22;58.28;101040.69;5087723;27;45644;-59
2022/08/28 03:18:19;;;;;;;;;6.67;6.00;;;;;18.27;58.28;101051.09;5083372;27;45330;-60
2022/08/28 03:20:45;;;;;;;;;7.67;7.00;;;;;18.23;58.10;101046.97;5093273;27;45344;-59
2022/08/28 03:23:27;;;;;;;;;7.00;7.00;;;;;18.20;58.66;101058.81;5088414;27;45372;-59
2022/08/28 03:25:59;;;;;;;;;5.00;5.00;;;;;18.18;58.21;101050.00;5097079;27;45314;-60
2022/08/28 03:28:27;;;;;;;;;7.00;5.67;;;;;18.13;58.49;101046.84;5095025;27;45277;-59
2022/08/28 03:30:53;;;;;;;;;8.67;7.67;;;;;18.24;58.32;101059.44;5097123;27;45479;-63
2022/08/28 03:33:19;;;;;;;;;5.33;5.00;;;;;18.21;58.40;101052.44;5085743;27;45404;-60
2022/08/28 03:35:44;;;;;;;;;6.00;6.00;;;;;18.24;58.20;101060.28;5094570;27;45578;-59
2022/08/28 03:38:10;;;;;;;;;7.33;5.33;;;;;18.23;58.09;101058.59;5088516;27;45700;-60
2022/08/28 03:40:41;;;;;;;;;7.00;7.00;;;;;18.20;58.12;101048.03;5093917;27;45168;-60
2022/08/28 03:43:08;;;;;;;;;8.67;8.00;;;;;18.19;58.74;101053.53;5092626;27;46306;-59
2022/08/28 03:45:33;;;;;;;;;7.00;6.00;;;;;18.10;59.02;101057.84;5095209;27;45642;-59
2022/08/28 03:47:58;;;;;;;;;6.67;6.67;;;;;18.11;58.67;101058.72;5112225;27;45395;-61
2022/08/28 03:50:24;;;;;;;;;7.67;7.67;;;;;18.03;59.67;101051.22;5094468;27;45279;-59
2022/08/28 03:52:49;;;;;;;;;6.67;6.67;;;;;17.95;60.14;101049.13;5093102;27;46008;-60
2022/08/28 03:55:17;;;;;;;;;8.67;8.67;;;;;17.81;60.26;101048.53;5097534;27;45332;-59
2022/08/28 03:57:42;;;;;;;;;8.00;7.67;;;;;17.86;59.75;101066.03;5098063;27;45453;-59
2022/08/28 04:00:12;;;;;;;;;5.67;5.67;;;;;17.90;59.69;101061.25;5094179;27;45308;-59
2022/08/28 04:02:39;;;;;;;;;9.00;7.67;;;;;17.87;59.80;101051.59;5099452;27;46126;-60
2022/08/28 04:05:05;;;;;;;;;6.67;6.67;;;;;17.83;59.66;101043.88;5100292;27;45357;-59
2022/08/28 04:07:30;;;;;;;;;5.00;5.00;;;;;17.81;60.18;101056.59;5096046;27;45435;-58
2022/08/28 04:09:55;;;;;;;;;8.00;7.00;;;;;17.83;59.82;101054.63;5088134;27;45679;-58
2022/08/28 04:12:21;;;;;;;;;7.00;7.00;;;;;17.87;60.06;101056.13;5095301;27;48323;-60
2022/08/28 04:14:46;;;;;;;;;5.00;5.00;;;;;17.87;59.83;101056.13;5100142;27;45346;-60
2022/08/28 04:17:11;;;;;;;;;6.00;6.00;;;;;17.88;59.92;101057.84;5094115;27;45402;-58
2022/08/28 04:19:37;;;;;;;;;7.33;6.33;;;;;17.87;60.06;101057.00;5098908;27;45283;-58
2022/08/28 04:22:02;;;;;;;;;6.67;5.00;;;;;17.85;60.28;101063.47;5095101;27;45371;-60
2022/08/28 04:24:28;;;;;;;;;7.33;7.00;;;;;17.73;61.40;101065.28;5079275;27;45281;-60
2022/08/28 04:26:54;;;;;;;;;9.00;8.00;;;;;17.60;61.20;101059.97;5097362;27;45612;-60
2022/08/28 04:29:19;;;;;;;;;8.67;6.00;;;;;17.67;61.49;101068.41;5100600;27;45602;-66
2022/08/28 04:31:45;;;;;;;;;6.33;4.33;;;;;17.62;61.57;101065.25;5085012;27;45307;-59
2022/08/28 04:34:10;;;;;;;;;7.00;7.00;;;;;17.62;61.04;101066.09;5083593;27;45634;-58
2022/08/28 04:36:36;;;;;;;;;5.00;5.00;;;;;17.68;61.17;101065.63;5095295;27;45547;-59
2022/08/28 04:39:07;;;;;;;;;7.33;7.00;;;;;17.69;60.88;101070.03;5079753;27;45449;-59
2022/08/28 04:41:35;;;;;;;;;8.00;8.00;;;;;17.70;60.65;101068.19;5087050;27;45435;-59
2022/08/28 04:44:01;;;;;;;;;5.67;5.67;;;;;17.67;60.88;101061.19;5078764;27;45534;-59
2022/08/28 04:46:26;;;;;;;;;4.00;4.00;;;;;17.73;60.73;101076.06;5099381;27;45415;-60
2022/08/28 04:48:51;;;;;;;;;6.00;5.00;;;;;17.71;61.53;101080.69;5095300;27;45741;-59
2022/08/28 04:51:17;;;;;;;;;8.33;7.33;;;;;17.67;61.22;101082.72;5097156;27;45960;-59
2022/08/28 04:53:42;;;;;;;;;5.00;5.00;;;;;17.60;61.41;101068.06;5096944;27;45533;-59
2022/08/28 04:56:10;;;;;;;;;6.00;6.00;;;;;17.63;61.30;101078.56;5099642;27;45395;-59
2022/08/28 04:58:37;;;;;;;;;9.00;9.00;;;;;17.59;61.18;101066.34;5096733;27;45405;-58
2022/08/28 05:01:14;;;;;;;;;6.67;6.67;;;;;17.66;61.01;101077.47;5094188;27;46514;-59
2022/08/28 05:03:39;;;;;;;;;5.67;5.67;;;;;17.62;61.97;101084.91;5084864;27;45491;-59
2022/08/28 05:06:06;;;;;;;;;6.00;6.00;;;;;17.63;61.63;101092.00;5097277;27;45439;-58
2022/08/28 05:08:31;;;;;;;;;5.00;4.00;;;;;17.61;62.10;101088.59;5098529;27;45357;-59
2022/08/28 05:11:07;;;;;;;;;8.67;5.67;;;;;17.62;61.35;101084.91;5098267;27;46307;-58
2022/08/28 05:13:33;;;;;;;;;3.00;2.67;;;;;17.61;61.81;101096.66;5095937;27;45437;-59
2022/08/28 05:16:02;;;;;;;;;6.67;6.67;;;;;17.57;62.00;101089.78;5098621;27;46017;-60
2022/08/28 05:18:27;;;;;;;;;4.67;4.67;;;;;17.55;61.54;101093.56;5094751;27;45277;-59
2022/08/28 05:20:52;;;;;;;;;7.33;6.67;;;;;17.55;62.80;101089.03;5091981;27;45754;-60
2022/08/28 05:23:18;;;;;;;;;5.67;5.00;;;;;17.50;62.60;101093.94;5096274;27;45353;-59
2022/08/28 05:25:46;;;;;;;;;8.00;6.00;;;;;17.48;62.55;101103.09;5099560;27;45278;-59
2022/08/28 05:28:12;;;;;;;;;10.67;8.67;;;;;17.49;62.44;101099.44;5098668;27;45472;-59
2022/08/28 05:30:39;;;;;;;;;7.00;7.00;;;;;17.44;62.31;101102.47;5096620;27;47318;-60
2022/08/28 05:33:07;;;;;;;;;7.00;5.00;;;;;17.47;62.91;101104.94;5093581;27;45309;-59
2022/08/28 05:35:34;;;;;;;;;4.33;3.67;;;;;17.52;62.55;101112.63;5077974;27;45359;-59
2022/08/28 05:37:59;;;;;;;;;8.33;7.00;;;;;17.50;62.49;101118.13;5083332;27;45420;-60
2022/08/28 05:40:25;;;;;;;;;15.00;9.00;;;;;17.43;62.90;101111.50;5077784;27;46171;-59
2022/08/28 05:42:50;;;;;;;;;7.00;7.00;;;;;17.31;63.39;101101.69;5089632;27;45464;-59
2022/08/28 05:45:16;;;;;;;;;6.67;6.33;;;;;17.39;63.21;101118.94;5078780;27;45410;-58
2022/08/28 05:47:42;;;;;;;;;6.00;6.00;;;;;17.47;62.49;101123.75;5081016;27;45313;-59
2022/08/28 05:50:12;;;;;;;;;9.00;9.00;;;;;17.50;63.63;101112.75;5097053;27;45333;-59
2022/08/28 05:52:38;;;;;;;;;10.00;8.00;;;;;17.55;62.35;101121.31;5096669;27;45333;-59
2022/08/28 05:55:04;;;;;;;;;6.00;6.00;;;;;17.58;62.93;101115.72;5077832;27;45348;-60
2022/08/28 05:57:29;;;;;;;;;7.00;7.00;;;;;17.60;62.17;101107.53;5090713;27;45484;-59
2022/08/28 05:59:55;;;;;;;;;6.00;6.00;;;;;17.66;62.50;101124.03;5084022;27;46405;-59
2022/08/28 06:02:20;;;;;;;;;10.00;8.00;;;;;17.65;62.43;101116.94;5082081;27;45412;-59
2022/08/28 06:04:47;;;;;;;;;7.33;7.33;;;;;17.58;63.36;101117.56;5094833;27;45420;-58
2022/08/28 06:07:14;;;;;;;;;6.33;6.33;;;;;17.46;63.62;101113.97;5093033;27;45466;-58
2022/08/28 06:09:40;;;;;;;;;10.67;7.00;;;;;17.54;63.51;101118.75;5095683;27;45466;-59
2022/08/28 06:12:06;;;;;;;;;6.67;6.67;;;;;17.59;63.17;101116.59;5095504;27;45314;-59
2022/08/28 06:14:32;;;;;;;;;9.67;8.67;;;;;17.59;62.96;101120.13;5094664;27;45378;-59
2022/08/28 06:16:58;;;;;;;;;7.67;7.67;;;;;17.61;62.93;101106.56;5085086;27;45503;-58
2022/08/28 06:19:27;;;;;;;;;5.33;5.33;;;;;17.73;62.80;101118.25;5079082;27;45373;-59
2022/08/28 06:21:58;;;;;;;;;8.33;8.00;;;;;17.55;63.18;101105.19;5097436;27;45447;-58
2022/08/28 06:24:25;;;;;;;;;8.33;6.00;;;;;17.62;62.97;101110.97;5088035;27;45408;-59
2022/08/28 06:26:51;;;;;;;;;8.67;7.33;;;;;17.75;62.85;101124.34;5085541;27;45522;-59
2022/08/28 06:29:19;;;;;;;;;8.67;7.00;;;;;17.67;62.84;101103.38;5093163;27;46319;-60
2022/08/28 06:31:45;;;;;;;;;7.00;7.00;;;;;17.76;62.61;101116.16;5093876;27;45540;-58
2022/08/28 06:34:11;;;;;;;;;6.67;5.67;;;;;17.84;62.39;101120.91;5109223;27;45440;-57
2022/08/28 06:36:43;;;;;;;;;4.67;4.67;;;;;17.91;62.39;101119.47;5104537;27;45684;-57
2022/08/28 06:39:11;;;;;;;;;7.33;7.33;;;;;17.96;62.57;101130.72;5093108;27;46626;-57
2022/08/28 06:41:41;;;;;;;;;8.00;7.00;;;;;18.02;62.38;101127.56;5116803;27;45264;-58
2022/08/28 06:44:12;;;;;;;;;10.67;8.00;;;;;18.00;62.83;101134.06;5117846;27;45387;-57
2022/08/28 06:46:38;;;;;;;;;7.00;7.00;;;;;18.04;62.60;101133.69;5118143;27;45304;-58
2022/08/28 06:49:05;;;;;;;;;9.00;8.00;;;;;18.07;62.61;101138.81;5116473;27;45285;-58
2022/08/28 06:51:31;;;;;;;;;8.00;6.67;;;;;18.03;62.91;101131.13;5117770;27;45538;-59
2022/08/28 06:53:57;;;;;;;;;8.00;8.00;;;;;17.99;62.90;101125.13;5112735;27;46853;-57
2022/08/28 06:56:22;;;;;;;;;6.00;6.00;;;;;18.05;63.08;101135.41;5104043;27;45539;-58
2022/08/28 06:58:49;;;;;;;;;9.67;7.67;;;;;18.04;63.43;101127.44;5115583;27;45747;-59
2022/08/28 07:01:21;;;;;;;;;7.33;7.33;;;;;18.10;62.90;101130.53;5105997;27;45767;-58
2022/08/28 07:03:48;;;;;;;;;7.00;7.00;;;;;18.12;62.97;101130.41;5091123;27;45440;-59
2022/08/28 07:06:14;;;;;;;;;9.67;8.67;;;;;18.09;62.60;101120.72;5094362;27;45756;-58
2022/08/28 07:08:41;;;;;;;;;8.00;7.00;;;;;18.16;62.59;101130.03;5093161;27;47216;-58
2022/08/28 07:11:09;;;;;;;;;7.33;7.33;;;;;18.19;62.74;101127.09;5084387;27;45389;-59
2022/08/28 07:13:35;;;;;;;;;8.33;6.33;;;;;18.25;62.13;101131.16;5094007;27;45251;-58
2022/08/28 07:16:01;;;;;;;;;7.00;7.00;;;;;18.34;62.12;101126.84;5095937;27;45598;-58
2022/08/28 07:18:26;;;;;;;;;9.33;6.67;;;;;18.41;62.10;101137.00;5096963;27;45507;-58
2022/08/28 07:20:59;;;;;;;;;6.33;6.33;;;;;18.35;62.36;101137.47;5090180;27;45839;-60
2022/08/28 07:23:29;;;;;;;;;10.67;9.67;;;;;18.34;62.51;101140.31;5096437;27;45251;-58
2022/08/28 07:25:55;;;;;;;;;7.00;7.00;;;;;18.39;62.11;101138.13;5096180;27;45423;-55
2022/08/28 07:28:20;;;;;;;;;10.00;9.00;;;;;18.42;62.21;101149.50;5095102;27;45468;-57
2022/08/28 07:30:56;;;;;;;;;7.00;6.00;;;;;18.44;61.75;101142.13;5111850;27;45962;-57
2022/08/28 07:33:22;;;;;;;;;9.67;9.67;;;;;18.51;61.86;101140.69;5075108;28;45239;-58
2022/08/28 07:35:49;;;;;;;;;9.00;8.00;;;;;18.56;61.29;101143.84;5077041;27;45630;-56
2022/08/28 07:38:14;;;;;;;;;10.33;9.67;;;;;18.67;61.22;101150.25;5077033;27;46041;-58
2022/08/28 07:40:40;;;;;;;;;9.33;9.33;;;;;18.72;61.03;101154.28;5094510;27;45583;-57
2022/08/28 07:45:59;;;;;;;;;8.33;8.33;;;;;18.77;61.02;101149.38;5083461;27;45273;-58
2022/08/28 07:48:25;;;;;;;;;9.00;9.00;;;;;18.83;60.88;101154.25;5075500;27;47048;-58
2022/08/28 07:50:50;;;;;;;;;12.00;9.00;;;;;18.91;60.56;101156.34;5076067;27;45238;-57
2022/08/28 07:53:15;;;;;;;;;9.33;8.00;;;;;18.99;60.75;101161.94;5089484;27;45405;-58
2022/08/28 07:55:41;;;;;;;;;11.33;8.67;;;;;18.97;60.72;101154.97;5096812;27;45347;-57
2022/08/28 07:58:06;;;;;;;;;7.33;7.33;;;;;18.90;61.30;101149.22;5095613;27;45628;-58
2022/08/28 08:00:31;;;;;;;;;7.33;7.33;;;;;18.96;60.97;101158.63;5095647;27;45349;-58
2022/08/28 08:02:57;;;;;;;;;8.00;8.00;;;;;19.07;60.41;101155.91;5096172;27;45331;-57
2022/08/28 08:05:22;;;;;;;;;7.67;7.00;;;;;19.11;60.06;101162.75;5107496;27;45827;-59
2022/08/28 08:07:47;;;;;;;;;11.33;9.00;;;;;19.19;59.98;101160.28;5095367;27;45934;-59
2022/08/28 08:10:13;;;;;;;;;8.33;8.33;;;;;19.21;59.92;101146.69;5096889;27;45670;-63
2022/08/28 08:12:41;;;;;;;;;9.00;7.00;;;;;19.23;59.93;101136.63;5096199;27;45342;-56
2022/08/28 08:15:08;;;;;;;;;7.00;6.00;;;;;19.34;59.77;101150.91;5095241;27;45632;-59
2022/08/28 08:17:34;;;;;;;;;8.00;6.00;;;;;19.43;59.48;101147.47;5095370;27;46171;-60
2022/08/28 08:20:00;;;;;;;;;7.67;7.33;;;;;19.46;59.41;101151.72;5109801;27;45308;-62
2022/08/28 08:22:25;;;;;;;;;11.00;8.00;;;;;19.51;59.25;101148.63;5094321;27;45270;-62
2022/08/28 08:24:53;;;;;;;;;8.33;8.33;;;;;19.52;59.43;101147.66;5097313;27;45377;-61
2022/08/28 08:27:18;;;;;;;;;6.00;4.67;;;;;19.59;59.37;101154.28;5095888;27;45391;-60
2022/08/28 08:29:44;;;;;;;;;8.00;8.00;;;;;19.65;59.33;101151.03;5094823;27;45430;-57
2022/08/28 08:32:10;;;;;;;;;14.67;9.33;;;;;19.64;58.93;101160.13;5095166;27;46388;-63
2022/08/28 08:34:42;;;;;;;;;9.00;7.67;;;;;19.76;59.02;101152.81;5096423;27;45450;-61
2022/08/28 08:37:08;;;;;;;;;8.00;8.00;;;;;19.98;58.67;101155.41;5095733;27;45381;-64
2022/08/28 08:39:35;;;;;;;;;8.33;7.67;;;;;20.27;57.98;101155.56;5095088;27;45647;-60
2022/08/28 08:42:03;;;;;;;;;8.67;7.33;;;;;20.67;57.40;101154.75;5076954;27;45416;-64
2022/08/28 08:44:33;;;;;;;;;10.33;9.33;;;;;21.09;55.87;101150.00;5079068;27;45291;-57
2022/08/28 08:47:10;;;;;;;;;7.67;7.33;;;;;21.49;55.08;101158.06;5078816;28;45662;-66
2022/08/28 08:49:39;;;;;;;;;9.00;8.00;;;;;21.77;53.32;101154.47;5096020;27;46792;-59
2022/08/28 08:52:11;;;;;;;;;11.00;7.00;;;;;22.05;52.81;101163.56;5097319;27;45386;-60
2022/08/28 08:54:41;;;;;;;;;9.33;8.00;;;;;22.25;51.84;101150.81;5079120;27;45546;-60
2022/08/28 08:57:11;;;;;;;;;10.00;10.00;;;;;22.40;51.84;101147.59;5078476;28;45361;-61
2022/08/28 08:59:38;;;;;;;;;8.33;8.00;;;;;22.70;50.60;101143.78;5080511;27;45275;-59
2022/08/28 09:02:16;;;;;;;;;9.00;8.75;;;;;22.99;50.74;101139.06;5095727;27;45531;-55
2022/08/28 09:05:08;;;;;;;;;12.50;10.75;;;;;23.46;50.05;101136.13;5101189;27;45674;-58
2022/08/28 09:07:48;;;;;;;;;8.50;8.50;;;;;23.82;47.73;101131.50;5095742;27;45628;-56
2022/08/28 09:10:14;;;;;;;;;4.67;4.67;;;;;24.12;47.50;101139.22;5095237;27;45505;-57
2022/08/28 09:13:10;;;;;;;;;15.25;12.25;;;;;24.25;46.53;101143.34;5097738;27;46092;-56
2022/08/28 09:15:40;;;;;;;;;10.00;8.25;;;;;24.41;46.25;101135.31;5098551;27;45575;-57
2022/08/28 09:18:13;;;;;;;;;11.25;9.25;;;;;24.58;46.14;101134.34;5097494;27;46025;-57
2022/08/28 09:20:39;;;;;;;;;8.25;8.25;;;;;24.81;47.06;101122.88;5098414;27;45406;-58
2022/08/28 09:23:05;;;;;;;;;11.50;10.25;;;;;25.14;45.35;101127.44;5097005;27;45445;-56
2022/08/28 09:25:50;;;;;;;;;15.00;15.00;;;;;25.53;43.68;101124.06;5098718;27;45324;-58
2022/08/28 09:28:20;;;;;;;;;8.50;8.50;;;;;25.69;44.57;101124.09;5098631;27;45196;-58
2022/08/28 09:30:54;;;;;;;;;9.00;9.00;;;;;25.73;44.11;101119.97;5098434;27;45339;-55
2022/08/28 09:33:36;;;;;;;;;12.00;9.50;;;;;26.08;44.01;101107.84;5093624;27;45439;-59
2022/08/28 09:36:29;;;;;;;;;11.75;10.75;;;;;26.53;44.53;101127.31;5099265;27;45525;-61
2022/08/28 09:39:05;;;;;;;;;8.25;8.25;;;;;26.63;43.25;101131.53;5097531;27;46443;-63
2022/08/28 09:44:15;;;;;;;;;8.80;8.20;;;;;26.99;42.04;101128.28;5084290;27;45325;-65
2022/08/28 09:46:47;;;;;;;;;9.25;9.25;;;;;27.06;41.41;101120.25;5085598;27;45413;-67
2022/08/28 09:49:13;;;;;;;;;11.50;9.75;;;;;27.04;40.49;101115.81;5108837;27;45959;-58
2022/08/28 09:51:39;;;;;;;;;8.75;8.75;;;;;26.96;41.08;101123.19;5117318;27;46159;-57
2022/08/28 09:54:20;;;;;;;;;14.60;12.80;;;;;26.90;40.45;101124.75;5100025;27;45338;-57
2022/08/28 09:56:47;;;;;;;;;11.50;10.00;;;;;26.66;40.60;101111.22;5098658;27;45361;-57
2022/08/28 09:59:17;;;;;;;;;10.00;8.50;;;;;26.63;41.03;101115.16;5097899;27;46684;-57
2022/08/28 10:01:51;;;;;;;;;10.20;10.20;;;;;26.85;41.45;101112.69;5091023;27;45837;-58
2022/08/28 10:04:36;;;;;;;;;11.00;11.00;;;;;26.86;40.54;101107.03;5097701;27;45497;-57
2022/08/28 10:07:16;;;;;;;;;11.50;11.50;;;;;26.93;40.54;101118.06;5093425;27;45458;-57
2022/08/28 10:10:00;;;;;;;;;12.00;10.50;;;;;26.86;41.23;101115.22;5097167;27;46221;-56
2022/08/28 10:12:44;;;;;;;;;11.20;10.80;;;;;26.73;40.82;101107.63;5089308;27;45266;-59
2022/08/28 10:15:25;;;;;;;;;14.00;11.25;;;;;26.42;41.73;101099.38;5106197;27;45615;-56
2022/08/28 10:18:27;;;;;;;;;12.00;12.00;;;;;26.20;42.05;101093.84;5097536;27;45424;-58
2022/08/28 10:21:20;;;;;;;;;9.50;9.50;;;;;25.96;42.38;101098.34;5096900;27;45671;-61
2022/08/28 10:24:10;;;;;;;;;12.50;10.75;;;;;25.87;42.60;101099.34;5091140;27;46431;-59
2022/08/28 10:26:43;;;;;;;;;9.00;9.00;;;;;25.72;43.08;101110.13;5093631;27;45461;-61
2022/08/28 10:29:38;;;;;;;;;15.25;10.00;;;;;25.65;43.15;101111.78;5093000;27;45713;-61
2022/08/28 10:32:15;;;;;;;;;14.50;10.50;;;;;25.52;42.97;101106.00;5089814;27;45988;-58
2022/08/28 10:35:18;;;;;;;;;11.25;11.25;;;;;25.31;43.49;101102.94;5095267;27;45461;-60
2022/08/28 10:37:54;;;;;;;;;7.20;7.20;;;;;25.20;43.37;101101.41;5096538;27;45279;-61
2022/08/28 10:40:39;;;;;;;;;13.50;12.00;;;;;24.94;43.77;101098.78;5096423;27;45351;-61
2022/08/28 10:43:12;;;;;;;;;13.00;11.50;;;;;25.03;44.60;101094.25;5097468;27;45305;-64
2022/08/28 10:45:39;;;;;;;;;9.25;9.00;;;;;24.96;44.14;101094.88;5096667;27;45391;-60
2022/08/28 10:48:26;;;;;;;;;9.50;9.50;;;;;24.98;44.17;101102.84;5091779;27;45578;-59
2022/08/28 10:50:59;;;;;;;;;9.00;9.00;;;;;24.98;44.08;101097.41;5091007;27;45171;-62
2022/08/28 10:54:01;;;;;;;;;15.75;12.00;;;;;25.01;43.87;101102.59;5093038;27;46434;-57
2022/08/28 10:56:37;;;;;;;;;9.00;9.00;;;;;24.96;44.14;101103.03;5064854;27;45645;-59
2022/08/28 10:59:03;;;;;;;;;14.50;11.00;;;;;24.92;43.99;101104.38;5091696;27;45306;-58
2022/08/28 11:01:33;;;;;;;;;9.00;7.00;;;;;24.98;44.27;101105.56;5097161;27;45563;-60
2022/08/28 11:04:02;;;;;;;;;10.00;9.25;;;;;25.03;43.48;101094.25;5092977;27;46540;-58
2022/08/28 11:06:39;;;;;;;;;9.60;9.60;;;;;25.20;43.58;101085.06;5092035;27;45530;-57
2022/08/28 11:09:24;;;;;;;;;9.50;9.50;;;;;25.35;43.39;101101.59;5092940;27;45573;-64
2022/08/28 11:12:16;;;;;;;;;11.25;10.00;;;;;25.29;43.33;101100.41;5095022;27;45687;-58
2022/08/28 11:14:44;;;;;;;;;5.75;5.25;;;;;25.37;43.46;101083.19;5102298;27;47201;-61
2022/08/28 11:17:30;;;;;;;;;7.75;7.75;;;;;25.58;43.05;101091.72;5093365;27;45392;-67
2022/08/28 11:20:21;;;;;;;;;11.75;9.25;;;;;25.57;42.93;101084.56;5097809;27;45241;-60
2022/08/28 11:23:09;;;;;;;;;7.75;7.75;;;;;25.53;42.82;101096.84;5092638;27;45532;-60
2022/08/28 11:25:58;;;;;;;;;12.25;8.50;;;;;25.61;42.61;101088.63;5094493;27;46562;-57
2022/08/28 11:28:23;;;;;;;;;9.00;8.00;;;;;25.73;42.57;101087.28;5088938;27;45420;-58
2022/08/28 11:31:08;;;;;;;;;9.75;9.75;;;;;25.81;42.71;101084.56;5087586;27;45381;-59
2022/08/28 11:33:51;;;;;;;;;8.25;8.25;;;;;25.77;42.42;101088.63;5096658;27;45849;-58
2022/08/28 11:36:22;;;;;;;;;13.50;10.50;;;;;25.64;42.16;101091.00;5094081;27;45499;-58
2022/08/28 11:38:51;;;;;;;;;8.50;8.50;;;;;25.74;42.24;101083.53;5091779;27;45359;-56